EPEL weather

Elblag Airport
Warmia-Masuria, Poland

Public forecast

Using degrees Celsius for public forecast. Weather courtesy of forecast.io.

METAR (pilot weather report)

Closest report is Gdańsk Lech Wałęsa Airport, 36.5 nm (67.5 km) WNW. Retrieved 2019/05/26 16:30 UTC (0 seconds ago):

EPGD 261630Z 26016KT 9999 FEW029 BKN034 15/09 Q1007

TAF (pilot weather forecast)

Closest forecast is Gdańsk Lech Wałęsa Airport, 36.5 nm (67.5 km) WNW. Retrieved 2019/05/26 12:36 UTC (4 hours ago):

TAF EPGD 261130Z 2612/2712 25015KT 9999 SCT035 TEMPO 2612/2618 26017G27KT PROB40 TEMPO 2618/2706 -RA BKN014 PROB40 TEMPO 2708/2712 -SHRA BKN025CB